sensor_id;sensor_type;location;lat;lon;timestamp;P1;durP1;ratioP1;P2;durP2;ratioP2
17927;SDS011;9089;58.396;15.544;2023-03-01T00:01:50;2.17;;;1.38;;
17927;SDS011;9089;58.396;15.544;2023-03-01T00:04:16;1.55;;;1.35;;
17927;SDS011;9089;58.396;15.544;2023-03-01T00:06:42;1.40;;;1.27;;
17927;SDS011;9089;58.396;15.544;2023-03-01T00:09:08;1.20;;;1.10;;
17927;SDS011;9089;58.396;15.544;2023-03-01T00:11:34;1.30;;;1.20;;
17927;SDS011;9089;58.396;15.544;2023-03-01T00:14:00;1.98;;;1.58;;
17927;SDS011;9089;58.396;15.544;2023-03-01T00:16:27;1.15;;;1.05;;
17927;SDS011;9089;58.396;15.544;2023-03-01T00:18:53;1.55;;;1.30;;
17927;SDS011;9089;58.396;15.544;2023-03-01T00:21:19;1.23;;;1.13;;
17927;SDS011;9089;58.396;15.544;2023-03-01T00:23:45;2.95;;;1.30;;
17927;SDS011;9089;58.396;15.544;2023-03-01T00:26:12;2.15;;;1.15;;
17927;SDS011;9089;58.396;15.544;2023-03-01T00:28:40;1.38;;;1.27;;
17927;SDS011;9089;58.396;15.544;2023-03-01T00:31:07;2.55;;;1.67;;
17927;SDS011;9089;58.396;15.544;2023-03-01T00:33:33;1.55;;;1.20;;
17927;SDS011;9089;58.396;15.544;2023-03-01T00:35:58;1.92;;;1.25;;
17927;SDS011;9089;58.396;15.544;2023-03-01T00:38:24;1.63;;;1.40;;
17927;SDS011;9089;58.396;15.544;2023-03-01T00:40:49;1.77;;;1.33;;
17927;SDS011;9089;58.396;15.544;2023-03-01T00:43:14;1.23;;;1.10;;
17927;SDS011;9089;58.396;15.544;2023-03-01T00:45:41;1.67;;;1.33;;
17927;SDS011;9089;58.396;15.544;2023-03-01T00:48:07;1.50;;;1.40;;
17927;SDS011;9089;58.396;15.544;2023-03-01T00:50:32;1.42;;;1.33;;
17927;SDS011;9089;58.396;15.544;2023-03-01T00:52:58;1.45;;;1.30;;
17927;SDS011;9089;58.396;15.544;2023-03-01T00:55:23;1.63;;;1.30;;
17927;SDS011;9089;58.396;15.544;2023-03-01T00:57:49;1.40;;;1.25;;
17927;SDS011;9089;58.396;15.544;2023-03-01T01:00:14;2.33;;;1.30;;
17927;SDS011;9089;58.396;15.544;2023-03-01T01:02:41;1.20;;;1.10;;
17927;SDS011;9089;58.396;15.544;2023-03-01T01:05:07;1.35;;;1.20;;
17927;SDS011;9089;58.396;15.544;2023-03-01T01:07:33;0.93;;;0.93;;
17927;SDS011;9089;58.396;15.544;2023-03-01T01:09:58;1.05;;;0.95;;
17927;SDS011;9089;58.396;15.544;2023-03-01T01:12:23;3.55;;;1.70;;
17927;SDS011;9089;58.396;15.544;2023-03-01T01:14:49;1.23;;;1.10;;
17927;SDS011;9089;58.396;15.544;2023-03-01T01:17:14;2.70;;;1.20;;
17927;SDS011;9089;58.396;15.544;2023-03-01T01:19:42;1.67;;;1.02;;
17927;SDS011;9089;58.396;15.544;2023-03-01T01:22:08;1.40;;;1.30;;
17927;SDS011;9089;58.396;15.544;2023-03-01T01:24:33;1.17;;;1.08;;
17927;SDS011;9089;58.396;15.544;2023-03-01T01:26:59;0.85;;;0.82;;
17927;SDS011;9089;58.396;15.544;2023-03-01T01:29:24;1.15;;;1.05;;
17927;SDS011;9089;58.396;15.544;2023-03-01T01:31:50;3.28;;;1.20;;
17927;SDS011;9089;58.396;15.544;2023-03-01T01:34:16;0.98;;;0.90;;
17927;SDS011;9089;58.396;15.544;2023-03-01T01:36:43;1.00;;;1.00;;
17927;SDS011;9089;58.396;15.544;2023-03-01T01:39:09;2.35;;;1.23;;
17927;SDS011;9089;58.396;15.544;2023-03-01T01:41:38;1.00;;;0.98;;
17927;SDS011;9089;58.396;15.544;2023-03-01T01:44:11;1.10;;;1.00;;
17927;SDS011;9089;58.396;15.544;2023-03-01T01:46:37;1.30;;;1.20;;
17927;SDS011;9089;58.396;15.544;2023-03-01T01:49:05;1.33;;;1.23;;
17927;SDS011;9089;58.396;15.544;2023-03-01T01:51:32;1.10;;;1.10;;
17927;SDS011;9089;58.396;15.544;2023-03-01T01:54:06;1.20;;;1.10;;
17927;SDS011;9089;58.396;15.544;2023-03-01T01:56:34;2.90;;;0.70;;
17927;SDS011;9089;58.396;15.544;2023-03-01T01:59:01;1.38;;;1.00;;
17927;SDS011;9089;58.396;15.544;2023-03-01T02:01:27;1.05;;;1.00;;
17927;SDS011;9089;58.396;15.544;2023-03-01T02:03:52;1.20;;;1.05;;
17927;SDS011;9089;58.396;15.544;2023-03-01T02:06:19;1.00;;;0.90;;
17927;SDS011;9089;58.396;15.544;2023-03-01T02:08:47;1.20;;;1.08;;
17927;SDS011;9089;58.396;15.544;2023-03-01T02:11:15;1.15;;;1.02;;
17927;SDS011;9089;58.396;15.544;2023-03-01T02:13:41;1.10;;;1.00;;
17927;SDS011;9089;58.396;15.544;2023-03-01T02:16:08;1.05;;;0.70;;
17927;SDS011;9089;58.396;15.544;2023-03-01T02:18:33;1.17;;;1.00;;
17927;SDS011;9089;58.396;15.544;2023-03-01T02:21:03;0.88;;;0.88;;
17927;SDS011;9089;58.396;15.544;2023-03-01T02:23:30;1.60;;;1.10;;
17927;SDS011;9089;58.396;15.544;2023-03-01T02:25:58;0.77;;;0.77;;
17927;SDS011;9089;58.396;15.544;2023-03-01T02:28:30;1.33;;;1.10;;
17927;SDS011;9089;58.396;15.544;2023-03-01T02:30:55;1.05;;;0.90;;
17927;SDS011;9089;58.396;15.544;2023-03-01T02:33:40;1.95;;;0.85;;
17927;SDS011;9089;58.396;15.544;2023-03-01T02:36:08;0.90;;;0.90;;
17927;SDS011;9089;58.396;15.544;2023-03-01T02:38:34;0.60;;;0.60;;
17927;SDS011;9089;58.396;15.544;2023-03-01T02:40:59;2.80;;;0.85;;
17927;SDS011;9089;58.396;15.544;2023-03-01T02:43:27;1.00;;;1.00;;
17927;SDS011;9089;58.396;15.544;2023-03-01T02:45:57;1.48;;;0.70;;
17927;SDS011;9089;58.396;15.544;2023-03-01T02:48:22;1.23;;;0.85;;
17927;SDS011;9089;58.396;15.544;2023-03-01T02:50:53;1.25;;;1.15;;
17927;SDS011;9089;58.396;15.544;2023-03-01T02:53:21;0.80;;;0.80;;
17927;SDS011;9089;58.396;15.544;2023-03-01T02:55:47;1.17;;;0.80;;
17927;SDS011;9089;58.396;15.544;2023-03-01T02:58:14;1.05;;;1.00;;
17927;SDS011;9089;58.396;15.544;2023-03-01T03:00:39;0.70;;;0.70;;
17927;SDS011;9089;58.396;15.544;2023-03-01T03:03:13;0.73;;;0.68;;
17927;SDS011;9089;58.396;15.544;2023-03-01T03:05:39;0.82;;;0.82;;
17927;SDS011;9089;58.396;15.544;2023-03-01T03:08:05;1.15;;;0.60;;
17927;SDS011;9089;58.396;15.544;2023-03-01T03:10:36;1.35;;;1.15;;
17927;SDS011;9089;58.396;15.544;2023-03-01T03:13:03;0.90;;;0.90;;
17927;SDS011;9089;58.396;15.544;2023-03-01T03:15:29;1.52;;;0.90;;
17927;SDS011;9089;58.396;15.544;2023-03-01T03:17:55;0.90;;;0.90;;
17927;SDS011;9089;58.396;15.544;2023-03-01T03:20:23;2.25;;;1.02;;
17927;SDS011;9089;58.396;15.544;2023-03-01T03:22:50;1.30;;;1.13;;
17927;SDS011;9089;58.396;15.544;2023-03-01T03:25:16;1.20;;;1.00;;
17927;SDS011;9089;58.396;15.544;2023-03-01T03:27:42;1.05;;;0.85;;
17927;SDS011;9089;58.396;15.544;2023-03-01T03:30:09;1.17;;;0.90;;
17927;SDS011;9089;58.396;15.544;2023-03-01T03:32:37;1.30;;;1.20;;
17927;SDS011;9089;58.396;15.544;2023-03-01T03:35:03;2.85;;;1.13;;
17927;SDS011;9089;58.396;15.544;2023-03-01T03:37:36;1.83;;;0.88;;
17927;SDS011;9089;58.396;15.544;2023-03-01T03:40:20;1.50;;;1.00;;
17927;SDS011;9089;58.396;15.544;2023-03-01T03:42:45;1.10;;;1.05;;
17927;SDS011;9089;58.396;15.544;2023-03-01T03:45:11;1.88;;;0.90;;
17927;SDS011;9089;58.396;15.544;2023-03-01T03:47:36;1.40;;;0.70;;
17927;SDS011;9089;58.396;15.544;2023-03-01T03:50:01;2.00;;;1.17;;
17927;SDS011;9089;58.396;15.544;2023-03-01T03:52:27;0.70;;;0.68;;
17927;SDS011;9089;58.396;15.544;2023-03-01T03:54:54;0.80;;;0.80;;
17927;SDS011;9089;58.396;15.544;2023-03-01T03:57:19;1.15;;;0.80;;
17927;SDS011;9089;58.396;15.544;2023-03-01T03:59:46;1.13;;;1.00;;
17927;SDS011;9089;58.396;15.544;2023-03-01T04:02:11;1.23;;;0.98;;
17927;SDS011;9089;58.396;15.544;2023-03-01T04:04:37;0.85;;;0.80;;
17927;SDS011;9089;58.396;15.544;2023-03-01T04:07:02;1.83;;;0.82;;
17927;SDS011;9089;58.396;15.544;2023-03-01T04:09:28;1.45;;;0.75;;
17927;SDS011;9089;58.396;15.544;2023-03-01T04:11:56;1.00;;;0.90;;
17927;SDS011;9089;58.396;15.544;2023-03-01T04:14:22;1.83;;;0.90;;
17927;SDS011;9089;58.396;15.544;2023-03-01T04:16:47;1.38;;;1.27;;
17927;SDS011;9089;58.396;15.544;2023-03-01T04:19:12;1.30;;;1.23;;
17927;SDS011;9089;58.396;15.544;2023-03-01T04:21:40;0.70;;;0.70;;
17927;SDS011;9089;58.396;15.544;2023-03-01T04:24:05;2.15;;;0.65;;
17927;SDS011;9089;58.396;15.544;2023-03-01T04:26:31;0.90;;;0.90;;
17927;SDS011;9089;58.396;15.544;2023-03-01T04:28:58;1.08;;;0.90;;
17927;SDS011;9089;58.396;15.544;2023-03-01T04:31:24;1.27;;;1.10;;
17927;SDS011;9089;58.396;15.544;2023-03-01T04:33:50;1.08;;;1.00;;
17927;SDS011;9089;58.396;15.544;2023-03-01T04:36:19;2.35;;;1.08;;
17927;SDS011;9089;58.396;15.544;2023-03-01T04:38:45;1.30;;;1.20;;
17927;SDS011;9089;58.396;15.544;2023-03-01T04:41:14;1.30;;;1.20;;
17927;SDS011;9089;58.396;15.544;2023-03-01T04:43:39;1.00;;;1.00;;
17927;SDS011;9089;58.396;15.544;2023-03-01T04:46:07;1.27;;;1.10;;
17927;SDS011;9089;58.396;15.544;2023-03-01T04:48:34;1.48;;;1.17;;
17927;SDS011;9089;58.396;15.544;2023-03-01T04:51:00;1.02;;;0.93;;
17927;SDS011;9089;58.396;15.544;2023-03-01T04:53:25;1.45;;;1.00;;
17927;SDS011;9089;58.396;15.544;2023-03-01T04:55:50;1.13;;;1.02;;
17927;SDS011;9089;58.396;15.544;2023-03-01T04:58:16;3.35;;;1.42;;
17927;SDS011;9089;58.396;15.544;2023-03-01T05:00:41;1.48;;;0.93;;
17927;SDS011;9089;58.396;15.544;2023-03-01T05:03:08;2.72;;;1.33;;
17927;SDS011;9089;58.396;15.544;2023-03-01T05:05:35;1.30;;;0.88;;
17927;SDS011;9089;58.396;15.544;2023-03-01T05:08:01;0.80;;;0.80;;
17927;SDS011;9089;58.396;15.544;2023-03-01T05:10:28;1.50;;;1.40;;
17927;SDS011;9089;58.396;15.544;2023-03-01T05:12:54;1.35;;;1.25;;
17927;SDS011;9089;58.396;15.544;2023-03-01T05:15:20;1.85;;;1.20;;
17927;SDS011;9089;58.396;15.544;2023-03-01T05:17:47;1.35;;;1.05;;
17927;SDS011;9089;58.396;15.544;2023-03-01T05:20:14;1.33;;;0.90;;
17927;SDS011;9089;58.396;15.544;2023-03-01T05:22:39;3.60;;;1.20;;
17927;SDS011;9089;58.396;15.544;2023-03-01T05:25:05;1.65;;;1.20;;
17927;SDS011;9089;58.396;15.544;2023-03-01T05:27:31;1.20;;;1.10;;
17927;SDS011;9089;58.396;15.544;2023-03-01T05:29:57;1.20;;;1.10;;
17927;SDS011;9089;58.396;15.544;2023-03-01T05:32:22;1.75;;;1.05;;
17927;SDS011;9089;58.396;15.544;2023-03-01T05:34:48;1.15;;;0.88;;
17927;SDS011;9089;58.396;15.544;2023-03-01T05:37:14;5.75;;;3.70;;
17927;SDS011;9089;58.396;15.544;2023-03-01T05:39:58;9.85;;;6.63;;
17927;SDS011;9089;58.396;15.544;2023-03-01T05:42:24;2.45;;;2.00;;
17927;SDS011;9089;58.396;15.544;2023-03-01T05:44:49;2.03;;;1.13;;
17927;SDS011;9089;58.396;15.544;2023-03-01T05:47:33;2.97;;;1.65;;
17927;SDS011;9089;58.396;15.544;2023-03-01T05:49:58;3.08;;;2.08;;
17927;SDS011;9089;58.396;15.544;2023-03-01T05:52:26;2.40;;;1.52;;
17927;SDS011;9089;58.396;15.544;2023-03-01T05:54:52;2.03;;;1.20;;
17927;SDS011;9089;58.396;15.544;2023-03-01T05:57:17;1.27;;;1.00;;
17927;SDS011;9089;58.396;15.544;2023-03-01T05:59:43;1.20;;;1.10;;
17927;SDS011;9089;58.396;15.544;2023-03-01T06:02:08;1.45;;;1.10;;
17927;SDS011;9089;58.396;15.544;2023-03-01T06:04:34;1.60;;;1.20;;
17927;SDS011;9089;58.396;15.544;2023-03-01T06:06:59;1.05;;;1.00;;
17927;SDS011;9089;58.396;15.544;2023-03-01T06:09:26;1.13;;;0.90;;
17927;SDS011;9089;58.396;15.544;2023-03-01T06:11:51;1.02;;;0.95;;
17927;SDS011;9089;58.396;15.544;2023-03-01T06:14:17;1.08;;;0.93;;
17927;SDS011;9089;58.396;15.544;2023-03-01T06:16:42;1.52;;;1.10;;
17927;SDS011;9089;58.396;15.544;2023-03-01T06:19:08;1.70;;;1.17;;
17927;SDS011;9089;58.396;15.544;2023-03-01T06:21:33;1.38;;;1.00;;
17927;SDS011;9089;58.396;15.544;2023-03-01T06:23:58;1.85;;;1.20;;
17927;SDS011;9089;58.396;15.544;2023-03-01T06:26:25;1.70;;;1.33;;
17927;SDS011;9089;58.396;15.544;2023-03-01T06:28:51;1.52;;;1.40;;
17927;SDS011;9089;58.396;15.544;2023-03-01T06:31:16;1.15;;;1.02;;
17927;SDS011;9089;58.396;15.544;2023-03-01T06:33:42;2.55;;;1.10;;
17927;SDS011;9089;58.396;15.544;2023-03-01T06:36:09;1.95;;;1.10;;
17927;SDS011;9089;58.396;15.544;2023-03-01T06:38:35;1.25;;;0.82;;
17927;SDS011;9089;58.396;15.544;2023-03-01T06:41:00;5.57;;;1.27;;
17927;SDS011;9089;58.396;15.544;2023-03-01T06:43:27;2.97;;;0.93;;
17927;SDS011;9089;58.396;15.544;2023-03-01T06:45:53;4.55;;;1.30;;
17927;SDS011;9089;58.396;15.544;2023-03-01T06:48:18;3.22;;;1.25;;
17927;SDS011;9089;58.396;15.544;2023-03-01T06:50:43;1.40;;;1.20;;
17927;SDS011;9089;58.396;15.544;2023-03-01T06:53:09;2.08;;;1.00;;
17927;SDS011;9089;58.396;15.544;2023-03-01T06:55:34;1.77;;;1.00;;
17927;SDS011;9089;58.396;15.544;2023-03-01T06:58:00;1.20;;;1.02;;
17927;SDS011;9089;58.396;15.544;2023-03-01T07:00:27;2.30;;;1.20;;
17927;SDS011;9089;58.396;15.544;2023-03-01T07:03:11;3.00;;;1.10;;
17927;SDS011;9089;58.396;15.544;2023-03-01T07:05:37;1.38;;;1.10;;
17927;SDS011;9089;58.396;15.544;2023-03-01T07:08:02;1.80;;;1.33;;
17927;SDS011;9089;58.396;15.544;2023-03-01T07:10:27;4.40;;;1.38;;
17927;SDS011;9089;58.396;15.544;2023-03-01T07:12:54;1.73;;;1.60;;
17927;SDS011;9089;58.396;15.544;2023-03-01T07:15:19;1.65;;;1.20;;
17927;SDS011;9089;58.396;15.544;2023-03-01T07:17:46;1.98;;;1.70;;
17927;SDS011;9089;58.396;15.544;2023-03-01T07:20:13;1.95;;;1.33;;
17927;SDS011;9089;58.396;15.544;2023-03-01T07:22:39;3.17;;;1.80;;
17927;SDS011;9089;58.396;15.544;2023-03-01T07:25:05;1.77;;;1.13;;
17927;SDS011;9089;58.396;15.544;2023-03-01T07:27:30;3.70;;;1.45;;
17927;SDS011;9089;58.396;15.544;2023-03-01T07:30:14;2.95;;;1.30;;
17927;SDS011;9089;58.396;15.544;2023-03-01T07:32:40;2.38;;;1.52;;
17927;SDS011;9089;58.396;15.544;2023-03-01T07:35:07;0.90;;;0.90;;
17927;SDS011;9089;58.396;15.544;2023-03-01T07:37:33;3.30;;;1.63;;
17927;SDS011;9089;58.396;15.544;2023-03-01T07:39:58;3.10;;;1.40;;
17927;SDS011;9089;58.396;15.544;2023-03-01T07:42:23;3.00;;;1.20;;
17927;SDS011;9089;58.396;15.544;2023-03-01T07:44:49;3.58;;;1.80;;
17927;SDS011;9089;58.396;15.544;2023-03-01T07:47:14;1.48;;;1.30;;
17927;SDS011;9089;58.396;15.544;2023-03-01T07:49:40;1.48;;;1.33;;
17927;SDS011;9089;58.396;15.544;2023-03-01T07:52:06;1.90;;;1.30;;
17927;SDS011;9089;58.396;15.544;2023-03-01T07:54:34;4.70;;;1.80;;
17927;SDS011;9089;58.396;15.544;2023-03-01T07:56:59;1.38;;;1.15;;
17927;SDS011;9089;58.396;15.544;2023-03-01T07:59:25;4.50;;;4.03;;
17927;SDS011;9089;58.396;15.544;2023-03-01T08:01:54;3.58;;;2.10;;
17927;SDS011;9089;58.396;15.544;2023-03-01T08:04:19;1.65;;;1.52;;
17927;SDS011;9089;58.396;15.544;2023-03-01T08:06:44;2.08;;;1.25;;
17927;SDS011;9089;58.396;15.544;2023-03-01T08:09:11;1.67;;;1.45;;
17927;SDS011;9089;58.396;15.544;2023-03-01T08:11:37;0.85;;;0.85;;
17927;SDS011;9089;58.396;15.544;2023-03-01T08:14:02;1.10;;;1.00;;
17927;SDS011;9089;58.396;15.544;2023-03-01T08:16:28;1.00;;;0.98;;
17927;SDS011;9089;58.396;15.544;2023-03-01T08:18:53;1.42;;;1.10;;
17927;SDS011;9089;58.396;15.544;2023-03-01T08:21:21;3.22;;;1.25;;
17927;SDS011;9089;58.396;15.544;2023-03-01T08:23:47;1.88;;;1.55;;
17927;SDS011;9089;58.396;15.544;2023-03-01T08:26:14;3.80;;;2.35;;
17927;SDS011;9089;58.396;15.544;2023-03-01T08:28:40;6.68;;;2.40;;
17927;SDS011;9089;58.396;15.544;2023-03-01T08:31:13;4.43;;;3.00;;
17927;SDS011;9089;58.396;15.544;2023-03-01T08:33:38;3.63;;;2.53;;
17927;SDS011;9089;58.396;15.544;2023-03-01T08:36:04;3.65;;;2.25;;
17927;SDS011;9089;58.396;15.544;2023-03-01T08:38:32;2.65;;;1.48;;
17927;SDS011;9089;58.396;15.544;2023-03-01T08:40:59;1.67;;;1.20;;
17927;SDS011;9089;58.396;15.544;2023-03-01T08:43:25;1.50;;;1.10;;
17927;SDS011;9089;58.396;15.544;2023-03-01T08:45:51;1.58;;;1.02;;
17927;SDS011;9089;58.396;15.544;2023-03-01T08:48:16;1.20;;;1.10;;
17927;SDS011;9089;58.396;15.544;2023-03-01T08:50:42;1.25;;;0.90;;
17927;SDS011;9089;58.396;15.544;2023-03-01T08:53:07;1.30;;;1.00;;
17927;SDS011;9089;58.396;15.544;2023-03-01T08:55:32;3.58;;;1.05;;
17927;SDS011;9089;58.396;15.544;2023-03-01T08:57:58;1.65;;;1.00;;
17927;SDS011;9089;58.396;15.544;2023-03-01T09:00:25;0.73;;;0.60;;
17927;SDS011;9089;58.396;15.544;2023-03-01T09:02:51;0.88;;;0.80;;
17927;SDS011;9089;58.396;15.544;2023-03-01T09:05:16;2.45;;;0.90;;
17927;SDS011;9089;58.396;15.544;2023-03-01T09:07:42;3.00;;;0.90;;
17927;SDS011;9089;58.396;15.544;2023-03-01T09:10:08;2.95;;;0.95;;
17927;SDS011;9089;58.396;15.544;2023-03-01T09:12:33;1.30;;;0.90;;
17927;SDS011;9089;58.396;15.544;2023-03-01T09:14:59;1.63;;;1.05;;
17927;SDS011;9089;58.396;15.544;2023-03-01T09:17:44;0.73;;;0.70;;
17927;SDS011;9089;58.396;15.544;2023-03-01T09:20:10;0.75;;;0.68;;
17927;SDS011;9089;58.396;15.544;2023-03-01T09:22:35;5.13;;;1.00;;
17927;SDS011;9089;58.396;15.544;2023-03-01T09:25:19;2.28;;;0.80;;
17927;SDS011;9089;58.396;15.544;2023-03-01T09:27:45;1.42;;;0.70;;
17927;SDS011;9089;58.396;15.544;2023-03-01T09:30:11;0.95;;;0.75;;
17927;SDS011;9089;58.396;15.544;2023-03-01T09:32:36;2.85;;;0.90;;
17927;SDS011;9089;58.396;15.544;2023-03-01T09:35:03;2.30;;;1.20;;
17927;SDS011;9089;58.396;15.544;2023-03-01T09:37:30;0.50;;;0.50;;
17927;SDS011;9089;58.396;15.544;2023-03-01T09:39:55;0.70;;;0.70;;
17927;SDS011;9089;58.396;15.544;2023-03-01T09:42:21;2.95;;;0.90;;
17927;SDS011;9089;58.396;15.544;2023-03-01T09:44:47;3.38;;;1.02;;
17927;SDS011;9089;58.396;15.544;2023-03-01T09:47:16;2.90;;;0.70;;
17927;SDS011;9089;58.396;15.544;2023-03-01T09:49:42;0.65;;;0.60;;
17927;SDS011;9089;58.396;15.544;2023-03-01T09:52:19;1.70;;;0.70;;
17927;SDS011;9089;58.396;15.544;2023-03-01T09:54:46;1.60;;;0.98;;
17927;SDS011;9089;58.396;15.544;2023-03-01T09:57:15;1.05;;;0.95;;
17927;SDS011;9089;58.396;15.544;2023-03-01T10:00:04;2.00;;;1.02;;
17927;SDS011;9089;58.396;15.544;2023-03-01T10:02:33;2.05;;;1.27;;
17927;SDS011;9089;58.396;15.544;2023-03-01T10:05:05;1.63;;;1.00;;
17927;SDS011;9089;58.396;15.544;2023-03-01T10:07:38;5.35;;;1.67;;
17927;SDS011;9089;58.396;15.544;2023-03-01T10:10:08;2.97;;;1.08;;
17927;SDS011;9089;58.396;15.544;2023-03-01T10:12:35;0.95;;;0.85;;
17927;SDS011;9089;58.396;15.544;2023-03-01T10:15:02;3.65;;;1.00;;
17927;SDS011;9089;58.396;15.544;2023-03-01T10:17:30;3.47;;;1.10;;
17927;SDS011;9089;58.396;15.544;2023-03-01T10:19:59;3.05;;;1.45;;
17927;SDS011;9089;58.396;15.544;2023-03-01T10:22:35;3.78;;;1.25;;
17927;SDS011;9089;58.396;15.544;2023-03-01T10:25:03;4.97;;;1.25;;
17927;SDS011;9089;58.396;15.544;2023-03-01T10:27:49;1.42;;;1.00;;
17927;SDS011;9089;58.396;15.544;2023-03-01T10:30:17;0.60;;;0.60;;
17927;SDS011;9089;58.396;15.544;2023-03-01T10:32:45;3.33;;;0.90;;
17927;SDS011;9089;58.396;15.544;2023-03-01T10:35:15;0.93;;;0.80;;
17927;SDS011;9089;58.396;15.544;2023-03-01T10:37:45;1.92;;;1.10;;
17927;SDS011;9089;58.396;15.544;2023-03-01T10:40:12;0.70;;;0.60;;
17927;SDS011;9089;58.396;15.544;2023-03-01T10:42:38;3.45;;;0.95;;
17927;SDS011;9089;58.396;15.544;2023-03-01T10:45:14;1.13;;;0.80;;
17927;SDS011;9089;58.396;15.544;2023-03-01T10:47:40;1.02;;;0.60;;
17927;SDS011;9089;58.396;15.544;2023-03-01T10:50:23;1.25;;;0.57;;
17927;SDS011;9089;58.396;15.544;2023-03-01T10:52:56;0.90;;;0.85;;
17927;SDS011;9089;58.396;15.544;2023-03-01T10:55:24;0.82;;;0.70;;
17927;SDS011;9089;58.396;15.544;2023-03-01T10:57:54;0.52;;;0.52;;
17927;SDS011;9089;58.396;15.544;2023-03-01T11:00:31;0.47;;;0.40;;
17927;SDS011;9089;58.396;15.544;2023-03-01T11:03:08;1.00;;;0.60;;
17927;SDS011;9089;58.396;15.544;2023-03-01T11:05:35;1.27;;;0.60;;
17927;SDS011;9089;58.396;15.544;2023-03-01T11:08:01;3.58;;;0.40;;
17927;SDS011;9089;58.396;15.544;2023-03-01T11:10:30;1.08;;;0.60;;
17927;SDS011;9089;58.396;15.544;2023-03-01T11:13:05;0.70;;;0.50;;
17927;SDS011;9089;58.396;15.544;2023-03-01T11:15:31;0.47;;;0.40;;
17927;SDS011;9089;58.396;15.544;2023-03-01T11:17:56;0.88;;;0.50;;
17927;SDS011;9089;58.396;15.544;2023-03-01T11:20:27;1.13;;;0.50;;
17927;SDS011;9089;58.396;15.544;2023-03-01T11:22:55;0.98;;;0.60;;
17927;SDS011;9089;58.396;15.544;2023-03-01T11:25:23;2.47;;;0.80;;
17927;SDS011;9089;58.396;15.544;2023-03-01T11:27:50;1.70;;;0.88;;
17927;SDS011;9089;58.396;15.544;2023-03-01T11:30:18;0.60;;;0.55;;
17927;SDS011;9089;58.396;15.544;2023-03-01T11:32:46;7.50;;;1.02;;
17927;SDS011;9089;58.396;15.544;2023-03-01T11:35:14;0.60;;;0.40;;
17927;SDS011;9089;58.396;15.544;2023-03-01T11:37:41;0.40;;;0.40;;
17927;SDS011;9089;58.396;15.544;2023-03-01T11:40:13;1.95;;;0.52;;
17927;SDS011;9089;58.396;15.544;2023-03-01T11:42:43;1.80;;;0.57;;
17927;SDS011;9089;58.396;15.544;2023-03-01T11:45:12;1.58;;;0.50;;
17927;SDS011;9089;58.396;15.544;2023-03-01T11:47:41;1.58;;;0.50;;
17927;SDS011;9089;58.396;15.544;2023-03-01T11:50:13;1.30;;;0.43;;
17927;SDS011;9089;58.396;15.544;2023-03-01T11:52:42;2.53;;;0.52;;
17927;SDS011;9089;58.396;15.544;2023-03-01T11:55:19;0.52;;;0.43;;
17927;SDS011;9089;58.396;15.544;2023-03-01T11:57:55;2.65;;;0.80;;
17927;SDS011;9089;58.396;15.544;2023-03-01T12:00:28;1.92;;;0.55;;
17927;SDS011;9089;58.396;15.544;2023-03-01T12:08:40;1.05;;;0.60;;
17927;SDS011;9089;58.396;15.544;2023-03-01T12:11:10;0.70;;;0.50;;
17927;SDS011;9089;58.396;15.544;2023-03-01T12:13:50;4.03;;;0.70;;
17927;SDS011;9089;58.396;15.544;2023-03-01T12:16:29;0.60;;;0.50;;
17927;SDS011;9089;58.396;15.544;2023-03-01T12:19:00;1.08;;;0.50;;
17927;SDS011;9089;58.396;15.544;2023-03-01T12:21:30;1.38;;;0.70;;
17927;SDS011;9089;58.396;15.544;2023-03-01T12:24:00;1.55;;;0.75;;
17927;SDS011;9089;58.396;15.544;2023-03-01T12:26:30;1.48;;;0.68;;
17927;SDS011;9089;58.396;15.544;2023-03-01T12:29:08;3.03;;;0.50;;
17927;SDS011;9089;58.396;15.544;2023-03-01T12:31:46;1.38;;;0.63;;
17927;SDS011;9089;58.396;15.544;2023-03-01T12:34:24;1.58;;;0.60;;
17927;SDS011;9089;58.396;15.544;2023-03-01T12:36:56;0.52;;;0.50;;
17927;SDS011;9089;58.396;15.544;2023-03-01T12:39:29;0.77;;;0.40;;
17927;SDS011;9089;58.396;15.544;2023-03-01T12:42:01;1.42;;;0.43;;
17927;SDS011;9089;58.396;15.544;2023-03-01T12:44:30;0.85;;;0.60;;
17927;SDS011;9089;58.396;15.544;2023-03-01T12:47:22;0.63;;;0.50;;
17927;SDS011;9089;58.396;15.544;2023-03-01T12:49:52;1.95;;;0.50;;
17927;SDS011;9089;58.396;15.544;2023-03-01T12:52:22;0.68;;;0.43;;
17927;SDS011;9089;58.396;15.544;2023-03-01T12:54:48;1.58;;;0.63;;
17927;SDS011;9089;58.396;15.544;2023-03-01T12:57:15;0.90;;;0.60;;
17927;SDS011;9089;58.396;15.544;2023-03-01T12:59:43;1.00;;;0.50;;
17927;SDS011;9089;58.396;15.544;2023-03-01T13:02:12;2.85;;;0.50;;
17927;SDS011;9089;58.396;15.544;2023-03-01T13:04:46;0.68;;;0.47;;
17927;SDS011;9089;58.396;15.544;2023-03-01T13:07:17;0.95;;;0.32;;
17927;SDS011;9089;58.396;15.544;2023-03-01T13:09:46;5.03;;;0.75;;
17927;SDS011;9089;58.396;15.544;2023-03-01T13:14:58;5.40;;;0.80;;
17927;SDS011;9089;58.396;15.544;2023-03-01T13:17:30;1.08;;;0.40;;
17927;SDS011;9089;58.396;15.544;2023-03-01T13:19:57;1.70;;;0.55;;
17927;SDS011;9089;58.396;15.544;2023-03-01T13:22:27;0.60;;;0.50;;
17927;SDS011;9089;58.396;15.544;2023-03-01T13:25:00;2.53;;;0.80;;
17927;SDS011;9089;58.396;15.544;2023-03-01T13:27:26;2.28;;;0.50;;
17927;SDS011;9089;58.396;15.544;2023-03-01T13:29:54;11.52;;;1.00;;
17927;SDS011;9089;58.396;15.544;2023-03-01T13:32:21;0.85;;;0.60;;
17927;SDS011;9089;58.396;15.544;2023-03-01T13:34:51;0.77;;;0.50;;
17927;SDS011;9089;58.396;15.544;2023-03-01T13:40:03;2.30;;;0.60;;
17927;SDS011;9089;58.396;15.544;2023-03-01T13:42:34;2.03;;;0.50;;
17927;SDS011;9089;58.396;15.544;2023-03-01T13:45:02;0.82;;;0.50;;
17927;SDS011;9089;58.396;15.544;2023-03-01T13:47:27;1.92;;;0.60;;
17927;SDS011;9089;58.396;15.544;2023-03-01T13:49:56;1.67;;;0.80;;
17927;SDS011;9089;58.396;15.544;2023-03-01T13:52:35;0.65;;;0.65;;
17927;SDS011;9089;58.396;15.544;2023-03-01T13:55:04;4.53;;;0.80;;
17927;SDS011;9089;58.396;15.544;2023-03-01T13:57:33;0.90;;;0.60;;
17927;SDS011;9089;58.396;15.544;2023-03-01T13:59:59;1.00;;;0.45;;
17927;SDS011;9089;58.396;15.544;2023-03-01T14:02:24;0.70;;;0.70;;
17927;SDS011;9089;58.396;15.544;2023-03-01T14:04:55;1.27;;;0.60;;
17927;SDS011;9089;58.396;15.544;2023-03-01T14:07:22;0.65;;;0.65;;
17927;SDS011;9089;58.396;15.544;2023-03-01T14:09:51;1.05;;;0.63;;
17927;SDS011;9089;58.396;15.544;2023-03-01T14:12:30;1.63;;;0.50;;
17927;SDS011;9089;58.396;15.544;2023-03-01T14:14:59;2.53;;;0.60;;
17927;SDS011;9089;58.396;15.544;2023-03-01T14:17:38;0.60;;;0.60;;
17927;SDS011;9089;58.396;15.544;2023-03-01T14:20:09;0.88;;;0.50;;
17927;SDS011;9089;58.396;15.544;2023-03-01T14:22:35;8.90;;;1.00;;
17927;SDS011;9089;58.396;15.544;2023-03-01T14:25:02;2.85;;;0.50;;
17927;SDS011;9089;58.396;15.544;2023-03-01T14:27:30;2.15;;;0.60;;
17927;SDS011;9089;58.396;15.544;2023-03-01T14:29:57;0.85;;;0.43;;
17927;SDS011;9089;58.396;15.544;2023-03-01T14:32:24;4.43;;;0.70;;
17927;SDS011;9089;58.396;15.544;2023-03-01T14:34:50;1.00;;;0.50;;
17927;SDS011;9089;58.396;15.544;2023-03-01T14:37:17;1.10;;;0.43;;
17927;SDS011;9089;58.396;15.544;2023-03-01T14:39:43;2.65;;;0.47;;
17927;SDS011;9089;58.396;15.544;2023-03-01T14:42:09;0.88;;;0.43;;
17927;SDS011;9089;58.396;15.544;2023-03-01T14:44:35;1.33;;;0.57;;
17927;SDS011;9089;58.396;15.544;2023-03-01T14:47:02;1.10;;;0.60;;
17927;SDS011;9089;58.396;15.544;2023-03-01T14:49:29;0.70;;;0.30;;
17927;SDS011;9089;58.396;15.544;2023-03-01T14:51:57;1.42;;;0.40;;
17927;SDS011;9089;58.396;15.544;2023-03-01T14:54:24;1.00;;;0.65;;
17927;SDS011;9089;58.396;15.544;2023-03-01T14:56:51;2.47;;;1.13;;
17927;SDS011;9089;58.396;15.544;2023-03-01T14:59:23;0.52;;;0.40;;
17927;SDS011;9089;58.396;15.544;2023-03-01T15:01:51;0.60;;;0.47;;
17927;SDS011;9089;58.396;15.544;2023-03-01T15:04:17;1.08;;;0.40;;